sensor_id;sensor_type;location;lat;lon;timestamp;P1;durP1;ratioP1;P2;durP2;ratioP2
14052;SDS011;7101;51.600;7.310;2023-06-22T00:01:12;5.90;;;4.45;;
14052;SDS011;7101;51.600;7.310;2023-06-22T00:03:39;7.72;;;5.65;;
14052;SDS011;7101;51.600;7.310;2023-06-22T00:06:07;7.50;;;5.10;;
14052;SDS011;7101;51.600;7.310;2023-06-22T00:08:34;7.72;;;6.10;;
14052;SDS011;7101;51.600;7.310;2023-06-22T00:11:01;6.40;;;5.65;;
14052;SDS011;7101;51.600;7.310;2023-06-22T00:13:27;6.20;;;5.32;;
14052;SDS011;7101;51.600;7.310;2023-06-22T00:15:54;7.45;;;4.97;;
14052;SDS011;7101;51.600;7.310;2023-06-22T00:18:21;8.02;;;5.28;;
14052;SDS011;7101;51.600;7.310;2023-06-22T00:20:53;6.18;;;5.18;;
14052;SDS011;7101;51.600;7.310;2023-06-22T00:23:24;6.82;;;5.03;;
14052;SDS011;7101;51.600;7.310;2023-06-22T00:25:51;7.55;;;5.80;;
14052;SDS011;7101;51.600;7.310;2023-06-22T00:28:17;7.28;;;5.07;;
14052;SDS011;7101;51.600;7.310;2023-06-22T00:30:44;6.85;;;5.35;;
14052;SDS011;7101;51.600;7.310;2023-06-22T00:33:12;8.25;;;5.80;;
14052;SDS011;7101;51.600;7.310;2023-06-22T00:35:41;6.68;;;5.05;;
14052;SDS011;7101;51.600;7.310;2023-06-22T00:38:08;6.03;;;4.97;;
14052;SDS011;7101;51.600;7.310;2023-06-22T00:40:36;8.38;;;6.70;;
14052;SDS011;7101;51.600;7.310;2023-06-22T00:43:03;7.97;;;5.95;;
14052;SDS011;7101;51.600;7.310;2023-06-22T00:45:31;7.60;;;6.05;;
14052;SDS011;7101;51.600;7.310;2023-06-22T00:47:58;9.50;;;5.70;;
14052;SDS011;7101;51.600;7.310;2023-06-22T00:50:26;12.20;;;6.05;;
14052;SDS011;7101;51.600;7.310;2023-06-22T00:52:58;6.47;;;5.78;;
14052;SDS011;7101;51.600;7.310;2023-06-22T00:55:26;9.68;;;5.88;;
14052;SDS011;7101;51.600;7.310;2023-06-22T00:58:06;10.13;;;6.68;;
14052;SDS011;7101;51.600;7.310;2023-06-22T01:00:35;9.45;;;6.13;;
14052;SDS011;7101;51.600;7.310;2023-06-22T01:03:03;9.10;;;6.70;;
14052;SDS011;7101;51.600;7.310;2023-06-22T01:05:33;7.93;;;6.53;;
14052;SDS011;7101;51.600;7.310;2023-06-22T01:08:04;9.00;;;6.78;;
14052;SDS011;7101;51.600;7.310;2023-06-22T01:10:36;7.40;;;6.18;;
14052;SDS011;7101;51.600;7.310;2023-06-22T01:13:10;8.82;;;5.80;;
14052;SDS011;7101;51.600;7.310;2023-06-22T01:15:43;9.02;;;6.13;;
14052;SDS011;7101;51.600;7.310;2023-06-22T01:18:15;9.77;;;6.72;;
14052;SDS011;7101;51.600;7.310;2023-06-22T01:20:44;8.05;;;7.03;;
14052;SDS011;7101;51.600;7.310;2023-06-22T01:23:23;7.63;;;6.68;;
14052;SDS011;7101;51.600;7.310;2023-06-22T01:25:57;7.68;;;6.88;;
14052;SDS011;7101;51.600;7.310;2023-06-22T01:31:19;15.35;;;7.40;;
14052;SDS011;7101;51.600;7.310;2023-06-22T01:33:50;11.80;;;8.20;;
14052;SDS011;7101;51.600;7.310;2023-06-22T01:36:19;12.18;;;8.40;;
14052;SDS011;7101;51.600;7.310;2023-06-22T01:38:47;9.80;;;8.55;;
14052;SDS011;7101;51.600;7.310;2023-06-22T01:41:15;11.82;;;7.85;;
14052;SDS011;7101;51.600;7.310;2023-06-22T01:43:43;8.98;;;8.07;;
14052;SDS011;7101;51.600;7.310;2023-06-22T01:46:12;9.43;;;8.23;;
14052;SDS011;7101;51.600;7.310;2023-06-22T01:48:40;9.73;;;8.73;;
14052;SDS011;7101;51.600;7.310;2023-06-22T01:51:07;11.55;;;8.73;;
14052;SDS011;7101;51.600;7.310;2023-06-22T01:53:34;13.18;;;9.45;;
14052;SDS011;7101;51.600;7.310;2023-06-22T01:56:01;10.70;;;8.35;;
14052;SDS011;7101;51.600;7.310;2023-06-22T01:58:28;10.00;;;8.57;;
14052;SDS011;7101;51.600;7.310;2023-06-22T02:00:58;9.60;;;8.60;;
14052;SDS011;7101;51.600;7.310;2023-06-22T02:03:37;11.20;;;9.23;;
14052;SDS011;7101;51.600;7.310;2023-06-22T02:06:08;11.93;;;9.10;;
14052;SDS011;7101;51.600;7.310;2023-06-22T02:08:41;10.75;;;8.38;;
14052;SDS011;7101;51.600;7.310;2023-06-22T02:11:18;10.82;;;8.07;;
14052;SDS011;7101;51.600;7.310;2023-06-22T02:13:46;10.13;;;9.07;;
14052;SDS011;7101;51.600;7.310;2023-06-22T02:16:14;11.48;;;9.95;;
14052;SDS011;7101;51.600;7.310;2023-06-22T02:18:46;11.48;;;10.10;;
14052;SDS011;7101;51.600;7.310;2023-06-22T02:21:16;12.88;;;11.02;;
14052;SDS011;7101;51.600;7.310;2023-06-22T02:23:43;15.15;;;10.52;;
14052;SDS011;7101;51.600;7.310;2023-06-22T02:26:09;13.93;;;10.80;;
14052;SDS011;7101;51.600;7.310;2023-06-22T02:28:37;12.02;;;9.68;;
14052;SDS011;7101;51.600;7.310;2023-06-22T02:31:03;14.75;;;10.75;;
14052;SDS011;7101;51.600;7.310;2023-06-22T02:33:30;13.20;;;11.35;;
14052;SDS011;7101;51.600;7.310;2023-06-22T02:35:58;12.15;;;10.57;;
14052;SDS011;7101;51.600;7.310;2023-06-22T02:38:25;13.70;;;11.35;;
14052;SDS011;7101;51.600;7.310;2023-06-22T02:40:52;11.90;;;10.68;;
14052;SDS011;7101;51.600;7.310;2023-06-22T02:43:19;11.73;;;10.45;;
14052;SDS011;7101;51.600;7.310;2023-06-22T02:45:45;13.18;;;11.00;;
14052;SDS011;7101;51.600;7.310;2023-06-22T02:48:13;13.65;;;11.75;;
14052;SDS011;7101;51.600;7.310;2023-06-22T02:50:40;13.15;;;11.88;;
14052;SDS011;7101;51.600;7.310;2023-06-22T02:53:09;14.82;;;11.30;;
14052;SDS011;7101;51.600;7.310;2023-06-22T02:55:35;13.18;;;11.70;;
14052;SDS011;7101;51.600;7.310;2023-06-22T02:58:04;13.13;;;11.40;;
14052;SDS011;7101;51.600;7.310;2023-06-22T03:00:31;14.90;;;12.15;;
14052;SDS011;7101;51.600;7.310;2023-06-22T03:02:58;13.20;;;11.50;;
14052;SDS011;7101;51.600;7.310;2023-06-22T03:05:25;12.15;;;10.95;;
14052;SDS011;7101;51.600;7.310;2023-06-22T03:07:52;12.05;;;10.80;;
14052;SDS011;7101;51.600;7.310;2023-06-22T03:10:20;14.88;;;11.55;;
14052;SDS011;7101;51.600;7.310;2023-06-22T03:12:46;14.68;;;11.80;;
14052;SDS011;7101;51.600;7.310;2023-06-22T03:15:13;19.92;;;10.75;;
14052;SDS011;7101;51.600;7.310;2023-06-22T03:17:42;14.10;;;10.45;;
14052;SDS011;7101;51.600;7.310;2023-06-22T03:20:09;13.55;;;10.57;;
14052;SDS011;7101;51.600;7.310;2023-06-22T03:22:37;12.82;;;10.95;;
14052;SDS011;7101;51.600;7.310;2023-06-22T03:25:04;14.27;;;11.23;;
14052;SDS011;7101;51.600;7.310;2023-06-22T03:27:36;15.55;;;12.13;;
14052;SDS011;7101;51.600;7.310;2023-06-22T03:30:04;14.88;;;12.75;;
14052;SDS011;7101;51.600;7.310;2023-06-22T03:32:31;15.55;;;12.30;;
14052;SDS011;7101;51.600;7.310;2023-06-22T03:34:58;13.38;;;11.98;;
14052;SDS011;7101;51.600;7.310;2023-06-22T03:37:25;13.10;;;11.43;;
14052;SDS011;7101;51.600;7.310;2023-06-22T03:39:52;12.95;;;11.45;;
14052;SDS011;7101;51.600;7.310;2023-06-22T03:42:19;15.32;;;12.27;;
14052;SDS011;7101;51.600;7.310;2023-06-22T03:44:48;14.07;;;11.25;;
14052;SDS011;7101;51.600;7.310;2023-06-22T03:47:14;15.07;;;11.90;;
14052;SDS011;7101;51.600;7.310;2023-06-22T03:49:41;16.48;;;12.77;;
14052;SDS011;7101;51.600;7.310;2023-06-22T03:52:08;16.13;;;12.43;;
14052;SDS011;7101;51.600;7.310;2023-06-22T03:54:36;15.15;;;13.63;;
14052;SDS011;7101;51.600;7.310;2023-06-22T03:57:03;16.70;;;14.00;;
14052;SDS011;7101;51.600;7.310;2023-06-22T03:59:30;14.68;;;13.18;;
14052;SDS011;7101;51.600;7.310;2023-06-22T04:01:59;15.50;;;13.95;;
14052;SDS011;7101;51.600;7.310;2023-06-22T04:04:26;18.20;;;14.05;;
14052;SDS011;7101;51.600;7.310;2023-06-22T04:06:52;15.63;;;14.02;;
14052;SDS011;7101;51.600;7.310;2023-06-22T04:09:19;16.02;;;14.00;;
14052;SDS011;7101;51.600;7.310;2023-06-22T04:11:48;17.80;;;15.15;;
14052;SDS011;7101;51.600;7.310;2023-06-22T04:14:15;18.77;;;14.68;;
14052;SDS011;7101;51.600;7.310;2023-06-22T04:16:41;15.20;;;13.57;;
14052;SDS011;7101;51.600;7.310;2023-06-22T04:19:10;15.80;;;14.15;;
14052;SDS011;7101;51.600;7.310;2023-06-22T04:21:41;16.55;;;13.88;;
14052;SDS011;7101;51.600;7.310;2023-06-22T04:24:08;14.68;;;13.10;;
14052;SDS011;7101;51.600;7.310;2023-06-22T04:26:35;15.45;;;13.85;;
14052;SDS011;7101;51.600;7.310;2023-06-22T04:29:03;14.40;;;12.95;;
14052;SDS011;7101;51.600;7.310;2023-06-22T04:31:30;15.43;;;13.40;;
14052;SDS011;7101;51.600;7.310;2023-06-22T04:34:02;15.00;;;13.40;;
14052;SDS011;7101;51.600;7.310;2023-06-22T04:36:33;13.75;;;12.45;;
14052;SDS011;7101;51.600;7.310;2023-06-22T04:39:03;15.40;;;13.57;;
14052;SDS011;7101;51.600;7.310;2023-06-22T04:41:31;14.48;;;13.10;;
14052;SDS011;7101;51.600;7.310;2023-06-22T04:44:07;15.13;;;13.45;;
14052;SDS011;7101;51.600;7.310;2023-06-22T04:46:35;15.20;;;13.60;;
14052;SDS011;7101;51.600;7.310;2023-06-22T04:49:04;15.32;;;13.73;;
14052;SDS011;7101;51.600;7.310;2023-06-22T04:51:36;17.05;;;14.43;;
14052;SDS011;7101;51.600;7.310;2023-06-22T04:54:04;15.45;;;13.95;;
14052;SDS011;7101;51.600;7.310;2023-06-22T04:56:31;15.13;;;13.52;;
14052;SDS011;7101;51.600;7.310;2023-06-22T04:58:58;15.52;;;13.93;;
14052;SDS011;7101;51.600;7.310;2023-06-22T05:01:25;15.40;;;13.90;;
14052;SDS011;7101;51.600;7.310;2023-06-22T05:03:52;15.63;;;12.93;;
14052;SDS011;7101;51.600;7.310;2023-06-22T05:06:20;15.90;;;13.38;;
14052;SDS011;7101;51.600;7.310;2023-06-22T05:08:51;15.45;;;13.07;;
14052;SDS011;7101;51.600;7.310;2023-06-22T05:11:22;14.63;;;12.95;;
14052;SDS011;7101;51.600;7.310;2023-06-22T05:13:49;16.35;;;13.27;;
14052;SDS011;7101;51.600;7.310;2023-06-22T05:16:16;14.25;;;12.85;;
14052;SDS011;7101;51.600;7.310;2023-06-22T05:18:49;14.70;;;12.90;;
14052;SDS011;7101;51.600;7.310;2023-06-22T05:21:21;15.25;;;13.52;;
14052;SDS011;7101;51.600;7.310;2023-06-22T05:23:50;17.33;;;13.13;;
14052;SDS011;7101;51.600;7.310;2023-06-22T05:26:18;14.80;;;13.30;;
14052;SDS011;7101;51.600;7.310;2023-06-22T05:28:45;15.63;;;12.70;;
14052;SDS011;7101;51.600;7.310;2023-06-22T05:31:12;15.65;;;13.65;;
14052;SDS011;7101;51.600;7.310;2023-06-22T05:33:39;18.50;;;13.85;;
14052;SDS011;7101;51.600;7.310;2023-06-22T05:36:06;16.77;;;13.45;;
14052;SDS011;7101;51.600;7.310;2023-06-22T05:38:34;14.40;;;12.93;;
14052;SDS011;7101;51.600;7.310;2023-06-22T05:41:02;14.13;;;12.73;;
14052;SDS011;7101;51.600;7.310;2023-06-22T05:43:29;15.10;;;12.98;;
14052;SDS011;7101;51.600;7.310;2023-06-22T05:45:56;16.70;;;13.05;;
14052;SDS011;7101;51.600;7.310;2023-06-22T05:48:23;14.85;;;13.35;;
14052;SDS011;7101;51.600;7.310;2023-06-22T05:50:50;14.50;;;12.98;;
14052;SDS011;7101;51.600;7.310;2023-06-22T05:53:17;14.80;;;13.30;;
14052;SDS011;7101;51.600;7.310;2023-06-22T05:55:44;14.85;;;13.32;;
14052;SDS011;7101;51.600;7.310;2023-06-22T05:58:12;15.23;;;13.70;;
14052;SDS011;7101;51.600;7.310;2023-06-22T06:00:39;16.05;;;13.60;;
14052;SDS011;7101;51.600;7.310;2023-06-22T06:03:06;15.95;;;13.00;;
14052;SDS011;7101;51.600;7.310;2023-06-22T06:05:34;15.23;;;13.05;;
14052;SDS011;7101;51.600;7.310;2023-06-22T06:08:01;13.95;;;12.27;;
14052;SDS011;7101;51.600;7.310;2023-06-22T06:10:30;14.38;;;12.30;;
14052;SDS011;7101;51.600;7.310;2023-06-22T06:12:58;13.05;;;11.75;;
14052;SDS011;7101;51.600;7.310;2023-06-22T06:15:28;15.90;;;12.63;;
14052;SDS011;7101;51.600;7.310;2023-06-22T06:17:55;20.02;;;12.98;;
14052;SDS011;7101;51.600;7.310;2023-06-22T06:20:23;14.25;;;11.93;;
14052;SDS011;7101;51.600;7.310;2023-06-22T06:22:52;15.90;;;12.95;;
14052;SDS011;7101;51.600;7.310;2023-06-22T06:25:19;14.75;;;13.07;;
14052;SDS011;7101;51.600;7.310;2023-06-22T06:27:47;13.73;;;12.32;;
14052;SDS011;7101;51.600;7.310;2023-06-22T06:30:15;15.93;;;12.98;;
14052;SDS011;7101;51.600;7.310;2023-06-22T06:32:46;20.90;;;12.95;;
14052;SDS011;7101;51.600;7.310;2023-06-22T06:35:13;15.65;;;12.75;;
14052;SDS011;7101;51.600;7.310;2023-06-22T06:37:41;14.40;;;12.90;;
14052;SDS011;7101;51.600;7.310;2023-06-22T06:40:09;14.32;;;12.35;;
14052;SDS011;7101;51.600;7.310;2023-06-22T06:42:40;12.82;;;11.55;;
14052;SDS011;7101;51.600;7.310;2023-06-22T06:45:10;15.20;;;11.48;;
14052;SDS011;7101;51.600;7.310;2023-06-22T06:47:38;14.68;;;12.35;;
14052;SDS011;7101;51.600;7.310;2023-06-22T06:50:07;15.50;;;13.30;;
14052;SDS011;7101;51.600;7.310;2023-06-22T06:52:35;14.40;;;12.88;;
14052;SDS011;7101;51.600;7.310;2023-06-22T06:55:02;17.00;;;13.00;;
14052;SDS011;7101;51.600;7.310;2023-06-22T06:57:33;16.90;;;12.55;;
14052;SDS011;7101;51.600;7.310;2023-06-22T07:00:00;15.00;;;13.35;;
14052;SDS011;7101;51.600;7.310;2023-06-22T07:02:32;17.73;;;13.60;;
14052;SDS011;7101;51.600;7.310;2023-06-22T07:04:59;16.63;;;13.65;;
14052;SDS011;7101;51.600;7.310;2023-06-22T07:07:30;18.95;;;14.38;;
14052;SDS011;7101;51.600;7.310;2023-06-22T07:09:57;20.73;;;14.23;;
14052;SDS011;7101;51.600;7.310;2023-06-22T07:12:24;17.17;;;14.18;;
14052;SDS011;7101;51.600;7.310;2023-06-22T07:14:51;14.82;;;13.20;;
14052;SDS011;7101;51.600;7.310;2023-06-22T07:17:18;15.18;;;13.55;;
14052;SDS011;7101;51.600;7.310;2023-06-22T07:19:45;14.73;;;13.20;;
14052;SDS011;7101;51.600;7.310;2023-06-22T07:22:12;14.52;;;12.68;;
14052;SDS011;7101;51.600;7.310;2023-06-22T07:24:40;14.20;;;12.70;;
14052;SDS011;7101;51.600;7.310;2023-06-22T07:27:07;14.68;;;12.25;;
14052;SDS011;7101;51.600;7.310;2023-06-22T07:29:36;14.82;;;12.75;;
14052;SDS011;7101;51.600;7.310;2023-06-22T07:32:06;14.52;;;12.23;;
14052;SDS011;7101;51.600;7.310;2023-06-22T07:34:33;14.63;;;12.98;;
14052;SDS011;7101;51.600;7.310;2023-06-22T07:37:01;14.02;;;12.07;;
14052;SDS011;7101;51.600;7.310;2023-06-22T07:39:29;14.25;;;12.43;;
14052;SDS011;7101;51.600;7.310;2023-06-22T07:41:58;13.60;;;12.02;;
14052;SDS011;7101;51.600;7.310;2023-06-22T07:44:26;13.32;;;11.93;;
14052;SDS011;7101;51.600;7.310;2023-06-22T07:46:53;16.17;;;12.80;;
14052;SDS011;7101;51.600;7.310;2023-06-22T07:49:19;14.00;;;11.88;;
14052;SDS011;7101;51.600;7.310;2023-06-22T07:51:46;15.25;;;12.05;;
14052;SDS011;7101;51.600;7.310;2023-06-22T07:54:13;13.05;;;11.85;;
14052;SDS011;7101;51.600;7.310;2023-06-22T07:56:41;14.13;;;12.40;;
14052;SDS011;7101;51.600;7.310;2023-06-22T07:59:09;13.57;;;12.18;;
14052;SDS011;7101;51.600;7.310;2023-06-22T08:01:36;13.52;;;12.23;;
14052;SDS011;7101;51.600;7.310;2023-06-22T08:04:03;14.90;;;12.55;;
14052;SDS011;7101;51.600;7.310;2023-06-22T08:06:30;15.38;;;12.48;;
14052;SDS011;7101;51.600;7.310;2023-06-22T08:08:57;14.60;;;12.95;;
14052;SDS011;7101;51.600;7.310;2023-06-22T08:11:24;13.20;;;11.82;;
14052;SDS011;7101;51.600;7.310;2023-06-22T08:13:52;13.50;;;12.10;;
14052;SDS011;7101;51.600;7.310;2023-06-22T08:16:22;14.27;;;12.50;;
14052;SDS011;7101;51.600;7.310;2023-06-22T08:18:48;15.13;;;12.27;;
14052;SDS011;7101;51.600;7.310;2023-06-22T08:21:15;15.05;;;13.18;;
14052;SDS011;7101;51.600;7.310;2023-06-22T08:23:42;13.75;;;12.45;;
14052;SDS011;7101;51.600;7.310;2023-06-22T08:26:09;14.50;;;12.32;;
14052;SDS011;7101;51.600;7.310;2023-06-22T08:28:36;14.70;;;12.82;;
14052;SDS011;7101;51.600;7.310;2023-06-22T08:31:03;13.48;;;12.15;;
14052;SDS011;7101;51.600;7.310;2023-06-22T08:33:31;13.82;;;12.43;;
14052;SDS011;7101;51.600;7.310;2023-06-22T08:35:58;17.95;;;13.25;;
14052;SDS011;7101;51.600;7.310;2023-06-22T08:38:25;14.95;;;13.10;;
14052;SDS011;7101;51.600;7.310;2023-06-22T08:40:53;13.95;;;12.63;;
14052;SDS011;7101;51.600;7.310;2023-06-22T08:43:20;14.07;;;12.68;;
14052;SDS011;7101;51.600;7.310;2023-06-22T08:45:47;16.02;;;13.13;;
14052;SDS011;7101;51.600;7.310;2023-06-22T08:48:14;15.07;;;13.65;;
14052;SDS011;7101;51.600;7.310;2023-06-22T08:50:42;14.43;;;13.10;;
14052;SDS011;7101;51.600;7.310;2023-06-22T08:53:09;14.82;;;13.35;;
14052;SDS011;7101;51.600;7.310;2023-06-22T08:55:37;15.18;;;13.68;;
14052;SDS011;7101;51.600;7.310;2023-06-22T08:58:03;15.98;;;13.63;;
14052;SDS011;7101;51.600;7.310;2023-06-22T09:00:31;14.70;;;13.20;;
14052;SDS011;7101;51.600;7.310;2023-06-22T09:03:01;16.50;;;13.95;;
14052;SDS011;7101;51.600;7.310;2023-06-22T09:05:28;15.10;;;13.52;;
14052;SDS011;7101;51.600;7.310;2023-06-22T09:07:57;15.45;;;12.82;;
14052;SDS011;7101;51.600;7.310;2023-06-22T09:10:24;14.85;;;13.15;;
14052;SDS011;7101;51.600;7.310;2023-06-22T09:12:52;15.25;;;13.75;;
14052;SDS011;7101;51.600;7.310;2023-06-22T09:15:19;16.67;;;14.32;;
14052;SDS011;7101;51.600;7.310;2023-06-22T09:17:46;18.80;;;14.68;;
14052;SDS011;7101;51.600;7.310;2023-06-22T09:20:13;16.50;;;13.57;;
14052;SDS011;7101;51.600;7.310;2023-06-22T09:22:40;14.10;;;12.68;;
14052;SDS011;7101;51.600;7.310;2023-06-22T09:25:09;14.85;;;13.35;;
14052;SDS011;7101;51.600;7.310;2023-06-22T09:27:36;14.82;;;13.27;;
14052;SDS011;7101;51.600;7.310;2023-06-22T09:30:04;13.80;;;12.48;;
14052;SDS011;7101;51.600;7.310;2023-06-22T09:32:32;14.95;;;13.43;;
14052;SDS011;7101;51.600;7.310;2023-06-22T09:35:02;18.75;;;13.38;;
14052;SDS011;7101;51.600;7.310;2023-06-22T09:37:31;13.93;;;12.45;;
14052;SDS011;7101;51.600;7.310;2023-06-22T09:39:58;14.55;;;13.15;;
14052;SDS011;7101;51.600;7.310;2023-06-22T09:42:26;15.43;;;13.73;;
14052;SDS011;7101;51.600;7.310;2023-06-22T09:44:53;15.15;;;13.38;;
14052;SDS011;7101;51.600;7.310;2023-06-22T09:47:20;15.20;;;13.70;;
14052;SDS011;7101;51.600;7.310;2023-06-22T09:49:47;14.30;;;12.80;;
14052;SDS011;7101;51.600;7.310;2023-06-22T09:52:14;15.48;;;13.68;;
14052;SDS011;7101;51.600;7.310;2023-06-22T09:54:40;14.10;;;12.60;;
14052;SDS011;7101;51.600;7.310;2023-06-22T09:57:07;14.50;;;13.02;;
14052;SDS011;7101;51.600;7.310;2023-06-22T09:59:35;14.93;;;10.88;;
14052;SDS011;7101;51.600;7.310;2023-06-22T10:02:03;13.95;;;10.98;;
14052;SDS011;7101;51.600;7.310;2023-06-22T10:04:30;15.70;;;11.85;;
14052;SDS011;7101;51.600;7.310;2023-06-22T10:06:57;12.13;;;10.98;;
14052;SDS011;7101;51.600;7.310;2023-06-22T10:09:24;12.50;;;11.25;;
14052;SDS011;7101;51.600;7.310;2023-06-22T10:11:51;11.98;;;10.77;;
14052;SDS011;7101;51.600;7.310;2023-06-22T10:14:17;13.23;;;11.93;;
14052;SDS011;7101;51.600;7.310;2023-06-22T10:16:46;11.90;;;10.80;;
14052;SDS011;7101;51.600;7.310;2023-06-22T10:19:16;11.52;;;10.43;;
14052;SDS011;7101;51.600;7.310;2023-06-22T10:21:45;12.23;;;11.02;;
14052;SDS011;7101;51.600;7.310;2023-06-22T10:24:12;12.50;;;11.38;;
14052;SDS011;7101;51.600;7.310;2023-06-22T10:26:39;11.93;;;10.73;;
14052;SDS011;7101;51.600;7.310;2023-06-22T10:29:06;12.98;;;10.98;;
14052;SDS011;7101;51.600;7.310;2023-06-22T10:31:32;12.00;;;10.77;;
14052;SDS011;7101;51.600;7.310;2023-06-22T10:34:01;12.50;;;11.27;;
14052;SDS011;7101;51.600;7.310;2023-06-22T10:36:28;14.68;;;13.25;;
14052;SDS011;7101;51.600;7.310;2023-06-22T10:38:54;12.27;;;10.98;;
14052;SDS011;7101;51.600;7.310;2023-06-22T10:41:24;13.13;;;11.85;;
14052;SDS011;7101;51.600;7.310;2023-06-22T10:43:54;12.70;;;11.40;;
14052;SDS011;7101;51.600;7.310;2023-06-22T10:46:21;13.07;;;11.60;;
14052;SDS011;7101;51.600;7.310;2023-06-22T10:48:47;12.63;;;11.32;;
14052;SDS011;7101;51.600;7.310;2023-06-22T10:51:17;15.20;;;12.05;;
14052;SDS011;7101;51.600;7.310;2023-06-22T10:53:43;17.63;;;13.13;;
14052;SDS011;7101;51.600;7.310;2023-06-22T10:56:11;14.32;;;12.68;;
14052;SDS011;7101;51.600;7.310;2023-06-22T10:58:38;15.35;;;13.95;;
14052;SDS011;7101;51.600;7.310;2023-06-22T11:01:05;14.45;;;12.95;;
14052;SDS011;7101;51.600;7.310;2023-06-22T11:03:32;14.27;;;13.00;;
14052;SDS011;7101;51.600;7.310;2023-06-22T11:05:59;13.75;;;12.45;;
14052;SDS011;7101;51.600;7.310;2023-06-22T11:08:28;15.63;;;14.00;;
14052;SDS011;7101;51.600;7.310;2023-06-22T11:10:54;14.35;;;13.05;;
14052;SDS011;7101;51.600;7.310;2023-06-22T11:13:21;14.40;;;13.00;;
14052;SDS011;7101;51.600;7.310;2023-06-22T11:15:48;17.90;;;14.95;;
14052;SDS011;7101;51.600;7.310;2023-06-22T11:18:16;16.05;;;14.45;;
14052;SDS011;7101;51.600;7.310;2023-06-22T11:20:43;15.50;;;14.00;;
14052;SDS011;7101;51.600;7.310;2023-06-22T11:23:10;20.20;;;15.13;;
14052;SDS011;7101;51.600;7.310;2023-06-22T11:25:39;17.85;;;15.00;;
14052;SDS011;7101;51.600;7.310;2023-06-22T11:28:07;16.30;;;14.68;;
14052;SDS011;7101;51.600;7.310;2023-06-22T11:30:34;16.83;;;15.23;;
14052;SDS011;7101;51.600;7.310;2023-06-22T11:33:01;16.77;;;15.18;;
14052;SDS011;7101;51.600;7.310;2023-06-22T11:35:28;16.65;;;14.85;;
14052;SDS011;7101;51.600;7.310;2023-06-22T11:37:55;16.60;;;14.85;;
14052;SDS011;7101;51.600;7.310;2023-06-22T11:40:22;17.90;;;16.08;;
14052;SDS011;7101;51.600;7.310;2023-06-22T11:42:50;18.85;;;16.25;;
14052;SDS011;7101;51.600;7.310;2023-06-22T11:45:17;20.05;;;17.38;;
14052;SDS011;7101;51.600;7.310;2023-06-22T11:47:45;19.67;;;17.75;;
14052;SDS011;7101;51.600;7.310;2023-06-22T11:50:12;19.90;;;18.05;;
14052;SDS011;7101;51.600;7.310;2023-06-22T11:52:39;21.13;;;19.00;;
14052;SDS011;7101;51.600;7.310;2023-06-22T11:55:06;29.38;;;19.67;;
14052;SDS011;7101;51.600;7.310;2023-06-22T11:57:33;20.52;;;18.35;;
14052;SDS011;7101;51.600;7.310;2023-06-22T12:00:05;22.40;;;20.10;;
14052;SDS011;7101;51.600;7.310;2023-06-22T12:02:42;23.02;;;20.70;;
14052;SDS011;7101;51.600;7.310;2023-06-22T12:05:10;23.98;;;21.50;;
14052;SDS011;7101;51.600;7.310;2023-06-22T12:07:37;25.95;;;23.20;;
14052;SDS011;7101;51.600;7.310;2023-06-22T12:10:04;26.75;;;21.92;;
14052;SDS011;7101;51.600;7.310;2023-06-22T12:12:32;24.88;;;22.30;;
14052;SDS011;7101;51.600;7.310;2023-06-22T12:14:59;30.02;;;24.30;;
14052;SDS011;7101;51.600;7.310;2023-06-22T12:17:30;28.42;;;24.38;;
14052;SDS011;7101;51.600;7.310;2023-06-22T12:19:56;29.25;;;24.15;;
14052;SDS011;7101;51.600;7.310;2023-06-22T12:22:24;34.15;;;25.02;;
14052;SDS011;7101;51.600;7.310;2023-06-22T12:24:51;35.38;;;26.50;;
14052;SDS011;7101;51.600;7.310;2023-06-22T12:27:18;31.23;;;26.30;;
14052;SDS011;7101;51.600;7.310;2023-06-22T12:29:45;37.40;;;27.90;;
14052;SDS011;7101;51.600;7.310;2023-06-22T12:32:13;37.05;;;28.27;;
14052;SDS011;7101;51.600;7.310;2023-06-22T12:34:42;30.52;;;27.17;;
14052;SDS011;7101;51.600;7.310;2023-06-22T12:37:10;33.17;;;28.42;;
14052;SDS011;7101;51.600;7.310;2023-06-22T12:39:39;32.08;;;28.55;;
14052;SDS011;7101;51.600;7.310;2023-06-22T12:42:08;31.25;;;27.90;;
14052;SDS011;7101;51.600;7.310;2023-06-22T12:44:37;31.05;;;27.08;;
14052;SDS011;7101;51.600;7.310;2023-06-22T12:47:05;31.83;;;28.45;;
14052;SDS011;7101;51.600;7.310;2023-06-22T12:49:33;30.55;;;27.25;;
14052;SDS011;7101;51.600;7.310;2023-06-22T12:52:01;32.33;;;28.85;;
14052;SDS011;7101;51.600;7.310;2023-06-22T12:54:29;32.08;;;28.75;;
14052;SDS011;7101;51.600;7.310;2023-06-22T12:56:55;29.55;;;26.42;;
14052;SDS011;7101;51.600;7.310;2023-06-22T12:59:22;32.33;;;28.92;;
14052;SDS011;7101;51.600;7.310;2023-06-22T13:01:49;32.78;;;28.85;;
14052;SDS011;7101;51.600;7.310;2023-06-22T13:04:16;32.28;;;28.63;;
14052;SDS011;7101;51.600;7.310;2023-06-22T13:06:44;30.88;;;27.52;;
14052;SDS011;7101;51.600;7.310;2023-06-22T13:09:14;33.50;;;29.02;;
14052;SDS011;7101;51.600;7.310;2023-06-22T13:11:42;32.13;;;28.83;;
14052;SDS011;7101;51.600;7.310;2023-06-22T13:14:09;31.35;;;27.60;;
14052;SDS011;7101;51.600;7.310;2023-06-22T13:16:36;30.52;;;27.17;;
14052;SDS011;7101;51.600;7.310;2023-06-22T13:19:03;28.58;;;25.48;;
14052;SDS011;7101;51.600;7.310;2023-06-22T13:21:30;29.85;;;26.10;;
14052;SDS011;7101;51.600;7.310;2023-06-22T13:23:59;28.50;;;25.35;;
14052;SDS011;7101;51.600;7.310;2023-06-22T13:26:27;30.55;;;26.15;;
14052;SDS011;7101;51.600;7.310;2023-06-22T13:28:55;32.08;;;28.45;;
14052;SDS011;7101;51.600;7.310;2023-06-22T13:31:22;29.55;;;26.52;;
14052;SDS011;7101;51.600;7.310;2023-06-22T13:33:49;28.98;;;25.90;;
14052;SDS011;7101;51.600;7.310;2023-06-22T13:36:17;25.33;;;22.60;;
14052;SDS011;7101;51.600;7.310;2023-06-22T13:38:44;21.85;;;19.55;;
14052;SDS011;7101;51.600;7.310;2023-06-22T13:41:12;20.63;;;18.42;;
14052;SDS011;7101;51.600;7.310;2023-06-22T13:43:40;20.15;;;17.85;;
14052;SDS011;7101;51.600;7.310;2023-06-22T13:46:07;16.77;;;14.90;;
14052;SDS011;7101;51.600;7.310;2023-06-22T13:48:36;19.92;;;16.42;;
14052;SDS011;7101;51.600;7.310;2023-06-22T13:51:03;17.83;;;15.93;;
14052;SDS011;7101;51.600;7.310;2023-06-22T13:53:29;21.08;;;16.35;;
14052;SDS011;7101;51.600;7.310;2023-06-22T13:55:56;17.85;;;15.95;;
14052;SDS011;7101;51.600;7.310;2023-06-22T13:58:23;16.70;;;14.77;;
14052;SDS011;7101;51.600;7.310;2023-06-22T14:00:51;18.50;;;15.73;;
14052;SDS011;7101;51.600;7.310;2023-06-22T14:03:18;18.83;;;15.90;;
14052;SDS011;7101;51.600;7.310;2023-06-22T14:05:45;15.50;;;13.88;;
14052;SDS011;7101;51.600;7.310;2023-06-22T14:08:13;16.95;;;14.57;;
14052;SDS011;7101;51.600;7.310;2023-06-22T14:10:40;14.32;;;12.85;;
14052;SDS011;7101;51.600;7.310;2023-06-22T14:13:07;13.85;;;12.63;;
14052;SDS011;7101;51.600;7.310;2023-06-22T14:15:33;14.57;;;13.15;;
14052;SDS011;7101;51.600;7.310;2023-06-22T14:18:01;12.70;;;11.48;;
14052;SDS011;7101;51.600;7.310;2023-06-22T14:20:28;15.00;;;12.98;;
14052;SDS011;7101;51.600;7.310;2023-06-22T14:22:55;14.50;;;13.10;;
14052;SDS011;7101;51.600;7.310;2023-06-22T14:25:23;13.00;;;11.75;;
14052;SDS011;7101;51.600;7.310;2023-06-22T14:27:50;12.68;;;11.45;;
14052;SDS011;7101;51.600;7.310;2023-06-22T14:30:19;12.82;;;11.63;;
14052;SDS011;7101;51.600;7.310;2023-06-22T14:32:45;14.45;;;11.35;;
14052;SDS011;7101;51.600;7.310;2023-06-22T14:35:15;11.85;;;10.75;;
14052;SDS011;7101;51.600;7.310;2023-06-22T14:37:42;12.80;;;11.60;;
14052;SDS011;7101;51.600;7.310;2023-06-22T14:40:11;12.88;;;11.65;;
14052;SDS011;7101;51.600;7.310;2023-06-22T14:42:38;13.80;;;12.35;;
14052;SDS011;7101;51.600;7.310;2023-06-22T14:45:05;13.60;;;12.23;;